aviador You're here:

PANW Decoded Metar

NEW STUYAHOK in AK, USA
Report Time2018-06-24 21:56:00
UTC Time2018-06-24 22:44:53
Flight Rules vfr VFR
Wind230° at 08 kt
W.Decomp.*RWY 14: 2.2 kt HW 7.7 kt RCW
W.Rank230° ranks 13
Current wind is below 230° avg. (9.3)
Visibility9999 m
Phenomena:Rain
Clouds:Scattered 049 Hf
Overcast 055 Hf
Expected CloudBase > 1,200 ft AGL from Temp-Dew spread
Ceiling5,500 ft
Temp12°C (ISA -2)
Dew Point09°C (82% RH)
AAT8.9°C
QNH1016 hPa
Density Alt72 ft
Elevation302 ft
Report Wrong Elevation
Raw Report
PANW 242156Z AUTO 23008KT 10SM RA SCT049 OVC055 12/09 A3000 RMK
AO2 SLP178 P0014 T01170094=

Extra information for PANW:More info

Metar Taf Metar & Taf Last 4 Metars F.Rules Stats Wind Profile Meteogram Temp Stats Airport Information Weather charts Add Link Nearby VenuesMetar ALERT Operation Metar Decoded Social comments

AIRNAV info for PANW